CPX671 Details

Departure: Tallahassee International Airport (KTLH)
Arrival: Miami International Airport (KMIA)
Route: HEVVN NICKI JUULI SSCOT5


Current Weather Information
KTLH 260953Z 00000KT 3/4SM BR VV003 14/14 A3000 RMK AO2 SLP158 VIS 1/2 V 1 T01390139
KMIA 260953Z 29003KT 10SM FEW020 21/17 A3000 RMK AO2 SLP160 T02060172